createdAt,value
2022-10-04T00:01:54.469Z,71.99
2022-10-04T00:04:35.012Z,72.04
2022-10-04T00:07:16.390Z,72.19
2022-10-04T00:09:50.862Z,72.00
2022-10-04T00:12:25.086Z,72.21
2022-10-04T00:14:59.395Z,72.44
2022-10-04T00:17:32.561Z,72.32
2022-10-04T00:20:05.219Z,72.56
2022-10-04T00:22:36.763Z,72.59
2022-10-04T00:25:34.781Z,72.58
2022-10-04T00:28:43.353Z,72.68
2022-10-04T00:31:18.716Z,72.72
2022-10-04T00:33:52.128Z,72.64
2022-10-04T00:36:54.262Z,72.72
2022-10-04T00:39:43.303Z,72.65
2022-10-04T00:42:43.092Z,72.80
2022-10-04T00:45:28.542Z,72.83
2022-10-04T00:48:32.881Z,72.78
2022-10-04T00:51:10.902Z,72.97
2022-10-04T00:53:53.084Z,73.01
2022-10-04T00:56:30.390Z,73.00
2022-10-04T00:59:18.103Z,72.84
2022-10-04T01:01:53.020Z,73.15
2022-10-04T01:04:34.736Z,73.19
2022-10-04T01:07:08.289Z,73.22
2022-10-04T01:09:50.756Z,73.30
2022-10-04T01:12:34.194Z,73.36
2022-10-04T01:15:09.974Z,73.19
2022-10-04T01:17:40.879Z,73.28
2022-10-04T01:20:33.824Z,73.24
2022-10-04T01:23:06.692Z,73.07
2022-10-04T01:25:49.813Z,73.01
2022-10-04T01:28:20.932Z,73.03
2022-10-04T01:30:53.080Z,72.94
2022-10-04T01:33:25.223Z,72.95
2022-10-04T01:35:56.795Z,73.02
2022-10-04T01:38:27.701Z,73.01
2022-10-04T01:41:01.961Z,73.20
2022-10-04T01:43:39.200Z,73.29
2022-10-04T01:46:14.968Z,73.40
2022-10-04T01:48:47.923Z,73.38
2022-10-04T01:51:25.334Z,73.43
2022-10-04T01:54:00.291Z,73.45
2022-10-04T01:56:39.015Z,73.44
2022-10-04T01:59:18.810Z,73.51
2022-10-04T02:01:55.440Z,73.67
2022-10-04T02:04:29.384Z,73.51
2022-10-04T02:07:02.999Z,73.64
2022-10-04T02:09:39.802Z,73.57
2022-10-04T02:12:11.281Z,73.29
2022-10-04T02:14:52.727Z,73.44
2022-10-04T02:17:29.487Z,73.38
2022-10-04T02:20:02.637Z,73.57
2022-10-04T02:22:34.018Z,73.47
2022-10-04T02:25:05.989Z,73.59
2022-10-04T02:27:36.979Z,73.51
2022-10-04T02:30:12.107Z,73.48
2022-10-04T02:33:01.041Z,73.60
2022-10-04T02:35:35.925Z,73.60
2022-10-04T02:38:16.281Z,73.75
2022-10-04T02:40:59.020Z,73.61
2022-10-04T02:43:36.480Z,73.66
2022-10-04T02:46:15.174Z,73.53
2022-10-04T02:48:50.060Z,73.53
2022-10-04T02:51:25.829Z,73.59
2022-10-04T02:54:06.697Z,73.53
2022-10-04T02:56:38.742Z,73.43
2022-10-04T02:59:17.418Z,73.64
2022-10-04T03:01:54.106Z,73.48
2022-10-04T03:04:27.770Z,73.62
2022-10-04T03:07:01.252Z,73.51
2022-10-04T03:09:33.226Z,73.54
2022-10-04T03:12:05.910Z,73.52
2022-10-04T03:14:39.502Z,73.64
2022-10-04T03:17:11.082Z,73.57
2022-10-04T03:19:42.210Z,73.48
2022-10-04T03:22:14.683Z,73.63
2022-10-04T03:24:50.730Z,73.60
2022-10-04T03:27:25.100Z,73.88
2022-10-04T03:29:59.503Z,73.76
2022-10-04T03:32:32.356Z,73.84
2022-10-04T03:35:07.661Z,73.91
2022-10-04T03:37:41.020Z,73.76
2022-10-04T03:40:13.770Z,73.94
2022-10-04T03:42:47.193Z,74.10
2022-10-04T03:45:20.720Z,74.12
2022-10-04T03:47:54.059Z,74.12
2022-10-04T03:50:29.200Z,73.98
2022-10-04T03:53:03.536Z,74.34
2022-10-04T03:55:38.768Z,74.25
2022-10-04T03:58:14.339Z,74.16
2022-10-04T04:00:54.825Z,74.26
2022-10-04T04:03:30.384Z,74.23
2022-10-04T04:06:07.173Z,74.33
2022-10-04T04:08:44.734Z,74.19
2022-10-04T04:11:23.702Z,74.37
2022-10-04T04:14:03.234Z,74.27
2022-10-04T04:16:35.122Z,74.41
2022-10-04T04:19:13.004Z,74.37
2022-10-04T04:21:44.573Z,74.51
2022-10-04T04:24:25.319Z,74.37
2022-10-04T04:26:59.580Z,74.49
2022-10-04T04:29:37.753Z,74.50
2022-10-04T04:32:16.098Z,74.62
2022-10-04T04:34:54.915Z,74.62
2022-10-04T04:37:25.854Z,74.47
2022-10-04T04:39:58.001Z,74.50
2022-10-04T04:42:34.290Z,74.64
2022-10-04T04:45:15.246Z,74.64
2022-10-04T04:47:50.524Z,74.80
2022-10-04T04:50:24.514Z,74.51
2022-10-04T04:53:06.109Z,74.74
2022-10-04T04:56:03.427Z,74.65
2022-10-04T04:58:37.465Z,74.68
2022-10-04T05:01:18.329Z,74.64
2022-10-04T05:04:02.976Z,74.60
2022-10-04T05:06:35.817Z,74.62
2022-10-04T05:09:07.218Z,74.68
2022-10-04T05:11:41.088Z,74.52
2022-10-04T05:14:15.456Z,74.60
2022-10-04T05:16:49.972Z,74.72
2022-10-04T05:19:24.794Z,74.81
2022-10-04T05:21:58.782Z,74.56
2022-10-04T05:24:32.886Z,74.62
2022-10-04T05:27:07.542Z,74.54
2022-10-04T05:29:42.995Z,74.77
2022-10-04T05:32:27.786Z,74.89
2022-10-04T05:34:59.583Z,74.66
2022-10-04T05:37:50.884Z,74.74
2022-10-04T05:40:33.406Z,74.78
2022-10-04T05:43:22.834Z,74.67
2022-10-04T05:46:18.767Z,74.76
2022-10-04T05:48:53.941Z,74.68
2022-10-04T05:51:29.062Z,74.61
2022-10-04T05:54:03.241Z,74.61
2022-10-04T05:57:02.436Z,74.58
2022-10-04T05:59:52.429Z,74.67
2022-10-04T06:02:38.521Z,74.66
2022-10-04T06:05:18.881Z,74.54
2022-10-04T06:07:58.935Z,74.32
2022-10-04T06:10:49.841Z,74.57
2022-10-04T06:13:40.969Z,74.32
2022-10-04T06:16:24.022Z,74.17
2022-10-04T06:19:19.081Z,74.41
2022-10-04T06:22:07.812Z,74.27
2022-10-04T06:24:42.287Z,74.18
2022-10-04T06:27:22.618Z,74.13
2022-10-04T06:29:57.736Z,73.95
2022-10-04T06:32:40.507Z,73.99
2022-10-04T06:35:26.469Z,73.84
2022-10-04T06:38:20.773Z,73.83
2022-10-04T06:41:16.265Z,73.74
2022-10-04T06:44:13.747Z,73.57
2022-10-04T06:46:50.906Z,73.61
2022-10-04T06:49:40.286Z,73.42
2022-10-04T06:52:31.415Z,73.49
2022-10-04T06:55:38.410Z,73.75
2022-10-04T06:58:34.261Z,73.96
2022-10-04T07:01:13.051Z,73.78
2022-10-04T07:03:51.820Z,73.68
2022-10-04T07:06:29.054Z,73.62
2022-10-04T07:09:05.768Z,73.46
2022-10-04T07:11:46.636Z,73.46
2022-10-04T07:14:21.645Z,73.45
2022-10-04T07:16:57.275Z,73.34
2022-10-04T07:19:35.191Z,73.29
2022-10-04T07:22:16.084Z,73.29
2022-10-04T07:24:59.274Z,73.23
2022-10-04T07:27:35.495Z,72.99
2022-10-04T07:30:10.259Z,72.87
2022-10-04T07:32:47.637Z,72.68
2022-10-04T07:35:32.893Z,72.58
2022-10-04T07:38:12.045Z,72.40
2022-10-04T07:40:52.443Z,72.57
2022-10-04T07:43:29.786Z,72.58
2022-10-04T07:46:07.772Z,72.55
2022-10-04T07:48:44.030Z,72.41
2022-10-04T07:51:25.252Z,72.40
2022-10-04T07:54:03.569Z,72.25
2022-10-04T07:56:40.794Z,71.84
2022-10-04T07:59:28.233Z,71.75
2022-10-04T08:02:12.989Z,71.40
2022-10-04T08:04:52.618Z,71.16
2022-10-04T08:07:28.135Z,70.93
2022-10-04T08:10:06.633Z,70.85
2022-10-04T08:12:52.007Z,70.61
2022-10-04T08:15:30.477Z,70.28
2022-10-04T08:18:06.653Z,70.25
2022-10-04T08:20:46.483Z,70.18
2022-10-04T08:23:32.751Z,70.09
2022-10-04T08:26:18.861Z,70.06
2022-10-04T08:29:17.230Z,69.93
2022-10-04T08:32:05.490Z,69.86
2022-10-04T08:34:56.796Z,69.83
2022-10-04T08:37:40.841Z,69.72
2022-10-04T08:40:53.004Z,69.67
2022-10-04T08:43:49.548Z,69.27
2022-10-04T08:46:59.778Z,68.97
2022-10-04T08:50:01.334Z,68.52
2022-10-04T08:52:59.632Z,68.32
2022-10-04T08:55:58.621Z,68.14
2022-10-04T08:58:49.055Z,67.98
2022-10-04T09:02:00.212Z,67.93
2022-10-04T09:04:49.821Z,67.70
2022-10-04T09:07:50.676Z,67.41
2022-10-04T09:10:39.387Z,67.16
2022-10-04T09:13:31.008Z,66.85
2022-10-04T09:16:16.735Z,66.53
2022-10-04T09:19:15.717Z,66.27
2022-10-04T09:22:05.071Z,66.39
2022-10-04T09:25:02.466Z,66.11
2022-10-04T09:27:54.959Z,65.66
2022-10-04T09:30:33.600Z,65.15
2022-10-04T09:33:20.875Z,65.03
2022-10-04T09:36:34.917Z,64.92
2022-10-04T09:39:31.259Z,64.68
2022-10-04T09:42:28.998Z,64.59
2022-10-04T09:45:21.746Z,64.26
2022-10-04T09:48:08.990Z,63.99
2022-10-04T09:51:08.085Z,63.81
2022-10-04T09:53:53.033Z,63.67
2022-10-04T09:56:50.368Z,63.70
2022-10-04T09:59:36.774Z,63.87
2022-10-04T10:02:31.015Z,63.87
2022-10-04T10:05:24.073Z,64.14
2022-10-04T10:08:08.977Z,64.16
2022-10-04T10:11:06.362Z,64.20
2022-10-04T10:14:02.708Z,64.34
2022-10-04T10:16:48.921Z,64.32
2022-10-04T10:19:42.845Z,64.35
2022-10-04T10:22:31.396Z,64.39
2022-10-04T10:25:29.848Z,64.05
2022-10-04T10:28:34.788Z,63.73
2022-10-04T10:31:23.277Z,63.16
2022-10-04T10:34:29.698Z,62.81
2022-10-04T10:37:18.973Z,62.29
2022-10-04T10:40:27.818Z,61.88
2022-10-04T10:43:08.525Z,61.64
2022-10-04T10:46:07.021Z,61.56
2022-10-04T10:48:59.815Z,61.48
2022-10-04T10:51:56.000Z,61.07
2022-10-04T10:54:56.041Z,60.62
2022-10-04T10:57:48.001Z,60.48
2022-10-04T11:00:25.694Z,60.41
2022-10-04T11:03:32.070Z,60.35
2022-10-04T11:06:19.238Z,60.63
2022-10-04T11:09:23.897Z,60.48
2022-10-04T11:12:27.821Z,60.03
2022-10-04T11:15:41.355Z,59.71
2022-10-04T11:18:46.389Z,59.56
2022-10-04T11:22:07.063Z,58.94
2022-10-04T11:25:26.209Z,58.75
2022-10-04T11:28:04.950Z,58.73
2022-10-04T11:31:02.581Z,58.73
2022-10-04T11:34:00.077Z,58.68
2022-10-04T11:36:44.896Z,58.84
2022-10-04T11:39:43.716Z,58.73
2022-10-04T11:42:28.053Z,58.45
2022-10-04T11:45:33.586Z,58.54
2022-10-04T11:48:17.638Z,58.75
2022-10-04T11:51:12.710Z,58.75
2022-10-04T11:54:10.769Z,58.78
2022-10-04T11:57:05.944Z,58.54
2022-10-04T11:59:51.081Z,58.49
2022-10-04T12:03:05.756Z,58.34
2022-10-04T12:06:01.305Z,58.24
2022-10-04T12:08:47.248Z,58.05
2022-10-04T12:11:58.236Z,57.76
2022-10-04T12:14:43.410Z,57.45
2022-10-04T12:17:53.936Z,57.41
2022-10-04T12:20:44.591Z,57.09
2022-10-04T12:23:40.965Z,57.14
2022-10-04T12:26:33.352Z,57.31
2022-10-04T12:29:21.932Z,57.45
2022-10-04T12:31:59.205Z,57.64
2022-10-04T12:34:38.187Z,57.59
2022-10-04T12:37:25.929Z,57.59
2022-10-04T12:40:20.933Z,57.53
2022-10-04T12:43:04.946Z,57.44
2022-10-04T12:45:57.050Z,57.40
2022-10-04T12:48:44.158Z,57.50
2022-10-04T12:51:39.610Z,57.50
2022-10-04T12:54:27.957Z,57.43
2022-10-04T12:57:12.045Z,57.52
2022-10-04T13:00:01.433Z,57.61
2022-10-04T13:02:47.941Z,57.74
2022-10-04T13:05:27.820Z,58.05
2022-10-04T13:08:14.682Z,58.02
2022-10-04T13:11:00.897Z,58.09
2022-10-04T13:13:49.622Z,57.84
2022-10-04T13:19:29.940Z,58.04
2022-10-04T13:22:54.855Z,58.12
2022-10-04T13:26:06.604Z,58.07
2022-10-04T13:28:47.396Z,58.03
2022-10-04T13:31:25.924Z,57.70
2022-10-04T13:34:08.135Z,57.74
2022-10-04T13:36:52.145Z,57.81
2022-10-04T13:39:44.286Z,57.90
2022-10-04T13:42:35.097Z,57.92
2022-10-04T13:45:25.497Z,57.90
2022-10-04T13:48:21.826Z,57.80
2022-10-04T13:51:08.616Z,57.59
2022-10-04T13:54:09.523Z,57.71
2022-10-04T13:57:02.824Z,57.65
2022-10-04T13:59:42.880Z,57.69
2022-10-04T14:02:40.415Z,57.74
2022-10-04T14:05:52.644Z,57.92
2022-10-04T14:09:20.731Z,57.96
2022-10-04T14:12:26.906Z,57.90
2022-10-04T14:15:23.937Z,57.70
2022-10-04T14:18:42.111Z,57.78
2022-10-04T14:21:39.139Z,57.66
2022-10-04T14:24:34.573Z,57.61
2022-10-04T14:27:51.762Z,57.65
2022-10-04T14:30:30.958Z,57.79
2022-10-04T14:33:29.499Z,57.81
2022-10-04T14:36:28.087Z,57.97
2022-10-04T14:39:20.387Z,58.02
2022-10-04T14:42:12.373Z,58.05
2022-10-04T14:45:01.762Z,58.06
2022-10-04T14:47:58.385Z,58.06
2022-10-04T14:50:45.010Z,58.19
2022-10-04T14:53:29.553Z,58.47
2022-10-04T14:56:29.915Z,58.45
2022-10-04T14:59:21.897Z,58.52
2022-10-04T15:02:20.742Z,58.58
2022-10-04T15:05:20.707Z,58.57
2022-10-04T15:07:56.592Z,58.74
2022-10-04T15:10:34.296Z,58.68
2022-10-04T15:13:20.047Z,58.79
2022-10-04T15:16:10.081Z,58.94
2022-10-04T15:18:53.870Z,58.85
2022-10-04T15:21:41.197Z,58.98
2022-10-04T15:24:27.926Z,59.05
2022-10-04T15:27:29.473Z,59.05
2022-10-04T15:30:11.778Z,59.19
2022-10-04T15:32:50.505Z,59.27
2022-10-04T15:35:31.631Z,59.34
2022-10-04T15:38:08.026Z,59.44
2022-10-04T15:40:42.064Z,59.58
2022-10-04T15:43:32.561Z,59.71
2022-10-04T15:46:25.362Z,59.69
2022-10-04T15:49:23.667Z,59.77
2022-10-04T15:52:11.868Z,59.91
2022-10-04T15:55:11.793Z,59.91
2022-10-04T15:58:12.676Z,60.08
2022-10-04T16:00:53.604Z,60.17
2022-10-04T16:03:40.254Z,60.22
2022-10-04T16:06:20.994Z,60.43
2022-10-04T16:09:14.199Z,60.50
2022-10-04T16:12:00.491Z,60.47
2022-10-04T16:15:03.011Z,60.54
2022-10-04T16:17:50.218Z,60.69
2022-10-04T16:21:06.251Z,60.80
2022-10-04T16:23:40.139Z,60.84
2022-10-04T16:26:14.104Z,61.01
2022-10-04T16:29:21.240Z,61.03
2022-10-04T16:31:57.102Z,61.13
2022-10-04T16:34:48.308Z,61.29
2022-10-04T16:37:32.415Z,61.39
2022-10-04T16:40:20.301Z,61.53
2022-10-04T16:43:01.503Z,61.59
2022-10-04T16:46:07.965Z,61.78
2022-10-04T16:48:52.201Z,62.04
2022-10-04T16:51:48.767Z,62.25
2022-10-04T16:54:48.098Z,62.32
2022-10-04T16:57:29.295Z,62.57
2022-10-04T17:00:21.816Z,62.69
2022-10-04T17:03:15.374Z,62.86
2022-10-04T17:06:12.838Z,63.11
2022-10-04T17:09:31.232Z,63.26
2022-10-04T17:12:35.330Z,63.51
2022-10-04T17:15:42.442Z,63.74
2022-10-04T17:18:30.013Z,63.82
2022-10-04T17:21:07.597Z,64.13
2022-10-04T17:24:14.729Z,64.33
2022-10-04T17:27:07.008Z,64.49
2022-10-04T17:29:55.277Z,64.64
2022-10-04T17:32:41.186Z,64.79
2022-10-04T17:35:46.244Z,64.88
2022-10-04T17:38:54.519Z,65.20
2022-10-04T17:41:37.447Z,65.29
2022-10-04T17:44:28.063Z,65.30
2022-10-04T17:47:11.915Z,65.52
2022-10-04T17:50:13.520Z,65.73
2022-10-04T17:53:14.206Z,65.86
2022-10-04T17:55:51.863Z,66.05
2022-10-04T17:58:30.498Z,66.07
2022-10-04T18:01:09.511Z,66.25
2022-10-04T18:03:44.093Z,66.37
2022-10-04T18:06:30.545Z,66.47
2022-10-04T18:09:06.531Z,66.45
2022-10-04T18:11:47.472Z,66.65
2022-10-04T18:14:42.114Z,66.78
2022-10-04T18:17:27.910Z,66.90
2022-10-04T18:20:23.558Z,66.94
2022-10-04T18:23:02.589Z,67.08
2022-10-04T18:25:34.664Z,67.18
2022-10-04T18:28:15.348Z,67.21
2022-10-04T18:31:00.674Z,67.25
2022-10-04T18:33:50.173Z,67.39
2022-10-04T18:36:24.761Z,67.56
2022-10-04T18:39:18.681Z,67.48
2022-10-04T18:42:00.773Z,67.51
2022-10-04T18:44:45.239Z,67.79
2022-10-04T18:47:33.962Z,67.92
2022-10-04T18:50:18.001Z,67.84
2022-10-04T18:53:02.836Z,67.89
2022-10-04T18:55:46.878Z,67.82
2022-10-04T18:58:49.237Z,68.04
2022-10-04T19:01:51.241Z,68.20
2022-10-04T19:04:33.752Z,68.15
2022-10-04T19:07:11.499Z,68.35
2022-10-04T19:10:04.111Z,68.38
2022-10-04T19:12:43.431Z,68.61
2022-10-04T19:15:27.748Z,68.60
2022-10-04T19:18:06.271Z,68.65
2022-10-04T19:20:43.456Z,68.59
2022-10-04T19:23:27.174Z,68.79
2022-10-04T19:26:31.102Z,68.76
2022-10-04T19:29:09.832Z,68.64
2022-10-04T19:31:49.693Z,68.93
2022-10-04T19:34:28.493Z,68.89
2022-10-04T19:37:03.998Z,68.89
2022-10-04T19:39:50.512Z,68.91
2022-10-04T19:42:29.692Z,69.08
2022-10-04T19:45:16.368Z,69.11
2022-10-04T19:47:52.267Z,69.29
2022-10-04T19:50:29.402Z,69.37
2022-10-04T19:53:04.464Z,69.38
2022-10-04T19:55:44.929Z,69.40
2022-10-04T19:58:32.477Z,69.63
2022-10-04T20:01:07.437Z,69.53
2022-10-04T20:03:39.302Z,69.59
2022-10-04T20:06:11.917Z,69.74
2022-10-04T20:09:01.903Z,69.72
2022-10-04T20:11:52.034Z,69.72
2022-10-04T20:15:14.914Z,69.84
2022-10-04T20:17:47.669Z,70.09
2022-10-04T20:20:43.183Z,70.10
2022-10-04T20:23:34.053Z,70.06
2022-10-04T20:26:07.712Z,70.07
2022-10-04T20:28:55.274Z,70.08
2022-10-04T20:31:56.444Z,70.22
2022-10-04T20:34:35.693Z,70.19
2022-10-04T20:37:08.354Z,70.31
2022-10-04T20:40:01.999Z,70.34
2022-10-04T20:42:38.442Z,70.66
2022-10-04T20:45:28.664Z,70.67
2022-10-04T20:47:59.698Z,70.52
2022-10-04T20:50:38.966Z,70.70
2022-10-04T20:53:19.178Z,70.65
2022-10-04T20:55:57.267Z,70.63
2022-10-04T20:58:36.194Z,70.75
2022-10-04T21:01:40.163Z,70.88
2022-10-04T21:04:30.742Z,70.83
2022-10-04T21:07:04.412Z,70.87
2022-10-04T21:09:37.874Z,70.86
2022-10-04T21:12:27.985Z,70.93
2022-10-04T21:15:08.739Z,71.01
2022-10-04T21:17:40.101Z,70.98
2022-10-04T21:20:36.570Z,71.32
2022-10-04T21:23:18.159Z,71.19
2022-10-04T21:25:49.049Z,71.33
2022-10-04T21:28:30.866Z,71.17
2022-10-04T21:31:03.274Z,71.43
2022-10-04T21:33:38.301Z,71.39
2022-10-04T21:36:09.729Z,71.60
2022-10-04T21:38:40.748Z,71.48
2022-10-04T21:41:11.612Z,71.64
2022-10-04T21:43:42.556Z,71.20
2022-10-04T21:46:17.826Z,71.65
2022-10-04T21:48:51.196Z,71.64
2022-10-04T21:51:22.120Z,71.68
2022-10-04T21:53:53.003Z,71.40
2022-10-04T21:56:23.907Z,71.63
2022-10-04T21:58:54.891Z,71.63
2022-10-04T22:01:25.855Z,71.51
2022-10-04T22:03:58.473Z,71.48
2022-10-04T22:06:29.358Z,71.76
2022-10-04T22:09:00.318Z,71.81
2022-10-04T22:11:31.388Z,72.10
2022-10-04T22:14:02.302Z,72.05
2022-10-04T22:16:33.278Z,72.13
2022-10-04T22:19:04.474Z,72.01
2022-10-04T22:21:35.570Z,72.14
2022-10-04T22:24:16.225Z,72.16
2022-10-04T22:26:47.600Z,72.10
2022-10-04T22:29:20.041Z,72.23
2022-10-04T22:31:53.332Z,72.09
2022-10-04T22:34:25.280Z,72.08
2022-10-04T22:36:56.337Z,72.21
2022-10-04T22:39:30.539Z,72.23
2022-10-04T22:42:02.705Z,72.28
2022-10-04T22:44:37.755Z,72.34
2022-10-04T22:47:13.694Z,72.50
2022-10-04T22:49:47.397Z,72.56
2022-10-04T22:52:21.202Z,72.48
2022-10-04T22:54:55.226Z,72.40
2022-10-04T22:57:29.490Z,72.45
2022-10-04T23:00:00.366Z,72.60
2022-10-04T23:02:32.981Z,72.66
2022-10-04T23:05:14.023Z,72.46
2022-10-04T23:07:45.798Z,72.73
2022-10-04T23:10:18.812Z,72.57
2022-10-04T23:12:50.910Z,72.62
2022-10-04T23:15:22.901Z,72.53
2022-10-04T23:17:56.350Z,72.75
2022-10-04T23:20:29.639Z,72.46
2022-10-04T23:23:02.185Z,72.43
2022-10-04T23:25:34.590Z,72.72
2022-10-04T23:28:14.469Z,72.54
2022-10-04T23:30:46.699Z,72.58
2022-10-04T23:33:22.738Z,72.61
2022-10-04T23:35:55.149Z,72.69
2022-10-04T23:38:26.684Z,72.77
2022-10-04T23:40:57.613Z,72.67
2022-10-04T23:43:31.862Z,72.59
2022-10-04T23:46:02.817Z,72.72
2022-10-04T23:48:33.795Z,72.72
2022-10-04T23:51:04.816Z,72.86
2022-10-04T23:53:36.417Z,72.69
2022-10-04T23:56:18.554Z,72.73
2022-10-04T23:58:51.062Z,72.86
